sensor_id;sensor_type;location;lat;lon;timestamp;P1;durP1;ratioP1;P2;durP2;ratioP2
16878;SDS011;8556;52.218;9.884;2022-11-20T00:00:06;24.87;;;15.70;;
16878;SDS011;8556;52.218;9.884;2022-11-20T00:02:34;22.33;;;13.90;;
16878;SDS011;8556;52.218;9.884;2022-11-20T00:05:00;21.83;;;13.63;;
16878;SDS011;8556;52.218;9.884;2022-11-20T00:07:27;21.90;;;13.77;;
16878;SDS011;8556;52.218;9.884;2022-11-20T00:09:54;23.87;;;14.53;;
16878;SDS011;8556;52.218;9.884;2022-11-20T00:12:22;22.43;;;13.60;;
16878;SDS011;8556;52.218;9.884;2022-11-20T00:14:49;22.23;;;13.67;;
16878;SDS011;8556;52.218;9.884;2022-11-20T00:17:16;21.43;;;12.40;;
16878;SDS011;8556;52.218;9.884;2022-11-20T00:19:42;25.03;;;14.30;;
16878;SDS011;8556;52.218;9.884;2022-11-20T00:22:09;22.17;;;13.63;;
16878;SDS011;8556;52.218;9.884;2022-11-20T00:24:36;21.83;;;13.73;;
16878;SDS011;8556;52.218;9.884;2022-11-20T00:27:03;24.40;;;14.03;;
16878;SDS011;8556;52.218;9.884;2022-11-20T00:29:31;21.73;;;13.13;;
16878;SDS011;8556;52.218;9.884;2022-11-20T00:31:57;21.47;;;12.43;;
16878;SDS011;8556;52.218;9.884;2022-11-20T00:34:24;21.13;;;13.23;;
16878;SDS011;8556;52.218;9.884;2022-11-20T00:36:51;20.73;;;12.43;;
16878;SDS011;8556;52.218;9.884;2022-11-20T00:39:18;21.47;;;13.03;;
16878;SDS011;8556;52.218;9.884;2022-11-20T00:41:44;22.40;;;12.43;;
16878;SDS011;8556;52.218;9.884;2022-11-20T00:44:11;20.60;;;12.87;;
16878;SDS011;8556;52.218;9.884;2022-11-20T00:46:39;21.63;;;12.67;;
16878;SDS011;8556;52.218;9.884;2022-11-20T00:49:06;23.73;;;15.07;;
16878;SDS011;8556;52.218;9.884;2022-11-20T00:51:33;21.83;;;13.00;;
16878;SDS011;8556;52.218;9.884;2022-11-20T00:54:00;23.10;;;13.90;;
16878;SDS011;8556;52.218;9.884;2022-11-20T00:56:27;21.93;;;12.63;;
16878;SDS011;8556;52.218;9.884;2022-11-20T00:58:54;25.00;;;12.53;;
16878;SDS011;8556;52.218;9.884;2022-11-20T01:01:21;22.60;;;12.47;;
16878;SDS011;8556;52.218;9.884;2022-11-20T01:03:51;24.13;;;13.03;;
16878;SDS011;8556;52.218;9.884;2022-11-20T01:06:20;21.83;;;12.20;;
16878;SDS011;8556;52.218;9.884;2022-11-20T01:08:48;21.53;;;12.10;;
16878;SDS011;8556;52.218;9.884;2022-11-20T01:11:17;22.83;;;12.60;;
16878;SDS011;8556;52.218;9.884;2022-11-20T01:13:45;21.73;;;12.37;;
16878;SDS011;8556;52.218;9.884;2022-11-20T01:16:12;20.30;;;12.40;;
16878;SDS011;8556;52.218;9.884;2022-11-20T01:18:41;18.70;;;11.87;;
16878;SDS011;8556;52.218;9.884;2022-11-20T01:21:11;22.90;;;12.83;;
16878;SDS011;8556;52.218;9.884;2022-11-20T01:23:39;20.50;;;11.63;;
16878;SDS011;8556;52.218;9.884;2022-11-20T01:26:08;19.77;;;11.80;;
16878;SDS011;8556;52.218;9.884;2022-11-20T01:28:36;20.30;;;12.07;;
16878;SDS011;8556;52.218;9.884;2022-11-20T01:31:10;20.20;;;12.27;;
16878;SDS011;8556;52.218;9.884;2022-11-20T01:33:38;21.73;;;12.67;;
16878;SDS011;8556;52.218;9.884;2022-11-20T01:36:06;19.97;;;11.97;;
16878;SDS011;8556;52.218;9.884;2022-11-20T01:38:35;20.43;;;12.20;;
16878;SDS011;8556;52.218;9.884;2022-11-20T01:41:02;19.50;;;11.73;;
16878;SDS011;8556;52.218;9.884;2022-11-20T01:43:29;20.30;;;11.93;;
16878;SDS011;8556;52.218;9.884;2022-11-20T01:45:59;23.00;;;12.57;;
16878;SDS011;8556;52.218;9.884;2022-11-20T01:48:30;20.77;;;11.83;;
16878;SDS011;8556;52.218;9.884;2022-11-20T01:51:01;20.57;;;12.10;;
16878;SDS011;8556;52.218;9.884;2022-11-20T01:53:31;22.40;;;12.63;;
16878;SDS011;8556;52.218;9.884;2022-11-20T01:56:04;22.50;;;12.13;;
16878;SDS011;8556;52.218;9.884;2022-11-20T01:58:35;23.00;;;13.10;;
16878;SDS011;8556;52.218;9.884;2022-11-20T02:01:08;22.23;;;12.57;;
16878;SDS011;8556;52.218;9.884;2022-11-20T02:03:35;22.10;;;12.80;;
16878;SDS011;8556;52.218;9.884;2022-11-20T02:06:04;21.10;;;12.47;;
16878;SDS011;8556;52.218;9.884;2022-11-20T02:08:36;19.90;;;12.43;;
16878;SDS011;8556;52.218;9.884;2022-11-20T02:11:05;20.03;;;12.00;;
16878;SDS011;8556;52.218;9.884;2022-11-20T02:13:32;20.80;;;12.27;;
16878;SDS011;8556;52.218;9.884;2022-11-20T02:16:08;19.73;;;12.30;;
16878;SDS011;8556;52.218;9.884;2022-11-20T02:18:41;21.27;;;12.53;;
16878;SDS011;8556;52.218;9.884;2022-11-20T02:21:11;23.10;;;12.63;;
16878;SDS011;8556;52.218;9.884;2022-11-20T02:24:04;21.13;;;12.70;;
16878;SDS011;8556;52.218;9.884;2022-11-20T02:26:37;22.50;;;11.93;;
16878;SDS011;8556;52.218;9.884;2022-11-20T02:29:07;19.63;;;12.20;;
16878;SDS011;8556;52.218;9.884;2022-11-20T02:31:35;20.60;;;12.40;;
16878;SDS011;8556;52.218;9.884;2022-11-20T02:34:03;21.07;;;12.20;;
16878;SDS011;8556;52.218;9.884;2022-11-20T02:36:30;21.03;;;12.20;;
16878;SDS011;8556;52.218;9.884;2022-11-20T02:38:59;18.93;;;11.07;;
16878;SDS011;8556;52.218;9.884;2022-11-20T02:41:31;20.80;;;11.87;;
16878;SDS011;8556;52.218;9.884;2022-11-20T02:43:59;17.93;;;11.73;;
16878;SDS011;8556;52.218;9.884;2022-11-20T02:46:26;20.47;;;12.20;;
16878;SDS011;8556;52.218;9.884;2022-11-20T02:48:53;19.10;;;11.37;;
16878;SDS011;8556;52.218;9.884;2022-11-20T02:51:20;18.57;;;11.10;;
16878;SDS011;8556;52.218;9.884;2022-11-20T02:53:48;18.43;;;10.80;;
16878;SDS011;8556;52.218;9.884;2022-11-20T02:56:15;21.10;;;11.80;;
16878;SDS011;8556;52.218;9.884;2022-11-20T02:58:43;17.57;;;11.27;;
16878;SDS011;8556;52.218;9.884;2022-11-20T03:01:10;18.13;;;10.83;;
16878;SDS011;8556;52.218;9.884;2022-11-20T03:03:36;20.00;;;11.27;;
16878;SDS011;8556;52.218;9.884;2022-11-20T03:06:03;20.83;;;11.73;;
16878;SDS011;8556;52.218;9.884;2022-11-20T03:08:31;19.00;;;12.03;;
16878;SDS011;8556;52.218;9.884;2022-11-20T03:11:01;19.20;;;11.20;;
16878;SDS011;8556;52.218;9.884;2022-11-20T03:13:29;21.33;;;12.20;;
16878;SDS011;8556;52.218;9.884;2022-11-20T03:15:57;17.80;;;10.77;;
16878;SDS011;8556;52.218;9.884;2022-11-20T03:18:24;17.63;;;10.50;;
16878;SDS011;8556;52.218;9.884;2022-11-20T03:20:56;18.37;;;11.50;;
16878;SDS011;8556;52.218;9.884;2022-11-20T03:23:23;18.93;;;11.33;;
16878;SDS011;8556;52.218;9.884;2022-11-20T03:25:50;20.63;;;11.67;;
16878;SDS011;8556;52.218;9.884;2022-11-20T03:28:17;19.27;;;11.47;;
16878;SDS011;8556;52.218;9.884;2022-11-20T03:30:44;18.20;;;11.00;;
16878;SDS011;8556;52.218;9.884;2022-11-20T03:33:12;19.10;;;10.87;;
16878;SDS011;8556;52.218;9.884;2022-11-20T03:35:39;19.77;;;10.80;;
16878;SDS011;8556;52.218;9.884;2022-11-20T03:38:06;18.53;;;11.47;;
16878;SDS011;8556;52.218;9.884;2022-11-20T03:40:33;20.87;;;11.57;;
16878;SDS011;8556;52.218;9.884;2022-11-20T03:43:01;20.73;;;11.37;;
16878;SDS011;8556;52.218;9.884;2022-11-20T03:45:28;20.23;;;11.97;;
16878;SDS011;8556;52.218;9.884;2022-11-20T03:47:55;18.20;;;11.47;;
16878;SDS011;8556;52.218;9.884;2022-11-20T03:50:23;20.03;;;11.40;;
16878;SDS011;8556;52.218;9.884;2022-11-20T03:52:49;19.03;;;11.30;;
16878;SDS011;8556;52.218;9.884;2022-11-20T03:55:16;18.80;;;10.30;;
16878;SDS011;8556;52.218;9.884;2022-11-20T03:57:43;19.17;;;11.53;;
16878;SDS011;8556;52.218;9.884;2022-11-20T04:00:10;18.10;;;10.47;;
16878;SDS011;8556;52.218;9.884;2022-11-20T04:02:38;19.73;;;11.80;;
16878;SDS011;8556;52.218;9.884;2022-11-20T04:05:05;21.40;;;11.17;;
16878;SDS011;8556;52.218;9.884;2022-11-20T04:07:34;20.50;;;11.30;;
16878;SDS011;8556;52.218;9.884;2022-11-20T04:10:02;21.10;;;11.77;;
16878;SDS011;8556;52.218;9.884;2022-11-20T04:12:31;19.63;;;11.70;;
16878;SDS011;8556;52.218;9.884;2022-11-20T04:14:58;18.97;;;11.43;;
16878;SDS011;8556;52.218;9.884;2022-11-20T04:17:25;19.13;;;10.77;;
16878;SDS011;8556;52.218;9.884;2022-11-20T04:19:52;18.27;;;10.67;;
16878;SDS011;8556;52.218;9.884;2022-11-20T04:22:18;21.67;;;12.33;;
16878;SDS011;8556;52.218;9.884;2022-11-20T04:24:46;18.23;;;10.80;;
16878;SDS011;8556;52.218;9.884;2022-11-20T04:27:13;19.47;;;11.07;;
16878;SDS011;8556;52.218;9.884;2022-11-20T04:29:40;18.40;;;10.47;;
16878;SDS011;8556;52.218;9.884;2022-11-20T04:32:07;19.63;;;11.17;;
16878;SDS011;8556;52.218;9.884;2022-11-20T04:34:34;18.73;;;11.07;;
16878;SDS011;8556;52.218;9.884;2022-11-20T04:37:00;17.57;;;10.83;;
16878;SDS011;8556;52.218;9.884;2022-11-20T04:39:27;17.60;;;10.23;;
16878;SDS011;8556;52.218;9.884;2022-11-20T04:41:55;19.63;;;11.53;;
16878;SDS011;8556;52.218;9.884;2022-11-20T04:44:36;18.40;;;10.53;;
16878;SDS011;8556;52.218;9.884;2022-11-20T04:47:03;18.77;;;11.37;;
16878;SDS011;8556;52.218;9.884;2022-11-20T04:49:29;18.10;;;10.60;;
16878;SDS011;8556;52.218;9.884;2022-11-20T04:51:56;19.73;;;11.13;;
16878;SDS011;8556;52.218;9.884;2022-11-20T04:54:23;19.40;;;10.97;;
16878;SDS011;8556;52.218;9.884;2022-11-20T04:56:50;19.63;;;10.73;;
16878;SDS011;8556;52.218;9.884;2022-11-20T04:59:18;18.23;;;10.70;;
16878;SDS011;8556;52.218;9.884;2022-11-20T05:01:45;19.03;;;11.13;;
16878;SDS011;8556;52.218;9.884;2022-11-20T05:04:12;18.03;;;10.73;;
16878;SDS011;8556;52.218;9.884;2022-11-20T05:06:39;18.47;;;10.60;;
16878;SDS011;8556;52.218;9.884;2022-11-20T05:09:05;18.70;;;10.73;;
16878;SDS011;8556;52.218;9.884;2022-11-20T05:11:32;21.20;;;11.20;;
16878;SDS011;8556;52.218;9.884;2022-11-20T05:13:59;18.47;;;10.67;;
16878;SDS011;8556;52.218;9.884;2022-11-20T05:16:27;18.40;;;10.40;;
16878;SDS011;8556;52.218;9.884;2022-11-20T05:18:55;18.97;;;11.07;;
16878;SDS011;8556;52.218;9.884;2022-11-20T05:21:23;16.67;;;9.83;;
16878;SDS011;8556;52.218;9.884;2022-11-20T05:23:50;18.90;;;10.53;;
16878;SDS011;8556;52.218;9.884;2022-11-20T05:26:17;20.70;;;11.17;;
16878;SDS011;8556;52.218;9.884;2022-11-20T05:28:46;27.27;;;16.63;;
16878;SDS011;8556;52.218;9.884;2022-11-20T05:31:14;21.97;;;11.10;;
16878;SDS011;8556;52.218;9.884;2022-11-20T05:33:43;16.83;;;10.20;;
16878;SDS011;8556;52.218;9.884;2022-11-20T05:36:11;16.53;;;10.17;;
16878;SDS011;8556;52.218;9.884;2022-11-20T05:38:38;17.70;;;10.40;;
16878;SDS011;8556;52.218;9.884;2022-11-20T05:41:06;17.77;;;10.23;;
16878;SDS011;8556;52.218;9.884;2022-11-20T05:43:34;17.30;;;9.70;;
16878;SDS011;8556;52.218;9.884;2022-11-20T05:46:02;18.80;;;10.53;;
16878;SDS011;8556;52.218;9.884;2022-11-20T05:48:29;18.30;;;10.37;;
16878;SDS011;8556;52.218;9.884;2022-11-20T05:50:58;17.73;;;10.37;;
16878;SDS011;8556;52.218;9.884;2022-11-20T05:53:25;18.17;;;10.03;;
16878;SDS011;8556;52.218;9.884;2022-11-20T05:56:02;18.60;;;10.23;;
16878;SDS011;8556;52.218;9.884;2022-11-20T05:58:30;17.50;;;9.80;;
16878;SDS011;8556;52.218;9.884;2022-11-20T06:01:02;17.00;;;9.80;;
16878;SDS011;8556;52.218;9.884;2022-11-20T06:03:31;19.87;;;11.73;;
16878;SDS011;8556;52.218;9.884;2022-11-20T06:05:59;18.90;;;10.93;;
16878;SDS011;8556;52.218;9.884;2022-11-20T06:08:27;17.27;;;9.63;;
16878;SDS011;8556;52.218;9.884;2022-11-20T06:10:54;19.10;;;10.63;;
16878;SDS011;8556;52.218;9.884;2022-11-20T06:13:21;20.27;;;11.20;;
16878;SDS011;8556;52.218;9.884;2022-11-20T06:15:48;18.43;;;10.47;;
16878;SDS011;8556;52.218;9.884;2022-11-20T06:18:15;18.93;;;10.27;;
16878;SDS011;8556;52.218;9.884;2022-11-20T06:20:42;18.07;;;10.50;;
16878;SDS011;8556;52.218;9.884;2022-11-20T06:23:10;18.43;;;11.00;;
16878;SDS011;8556;52.218;9.884;2022-11-20T06:25:38;18.57;;;11.27;;
16878;SDS011;8556;52.218;9.884;2022-11-20T06:28:05;18.37;;;10.73;;
16878;SDS011;8556;52.218;9.884;2022-11-20T06:30:32;17.07;;;10.50;;
16878;SDS011;8556;52.218;9.884;2022-11-20T06:32:59;18.80;;;10.47;;
16878;SDS011;8556;52.218;9.884;2022-11-20T06:35:26;19.93;;;11.33;;
16878;SDS011;8556;52.218;9.884;2022-11-20T06:37:52;17.90;;;10.70;;
16878;SDS011;8556;52.218;9.884;2022-11-20T06:40:20;20.73;;;11.33;;
16878;SDS011;8556;52.218;9.884;2022-11-20T06:42:47;19.50;;;11.17;;
16878;SDS011;8556;52.218;9.884;2022-11-20T06:45:14;24.13;;;13.83;;
16878;SDS011;8556;52.218;9.884;2022-11-20T06:47:41;19.50;;;10.90;;
16878;SDS011;8556;52.218;9.884;2022-11-20T06:50:08;19.73;;;11.37;;
16878;SDS011;8556;52.218;9.884;2022-11-20T06:52:35;19.17;;;11.63;;
16878;SDS011;8556;52.218;9.884;2022-11-20T06:55:02;19.03;;;10.93;;
16878;SDS011;8556;52.218;9.884;2022-11-20T06:57:30;19.03;;;11.37;;
16878;SDS011;8556;52.218;9.884;2022-11-20T06:59:57;18.23;;;10.17;;
16878;SDS011;8556;52.218;9.884;2022-11-20T07:02:24;19.70;;;10.53;;
16878;SDS011;8556;52.218;9.884;2022-11-20T07:04:51;19.53;;;10.67;;
16878;SDS011;8556;52.218;9.884;2022-11-20T07:07:18;18.17;;;10.53;;
16878;SDS011;8556;52.218;9.884;2022-11-20T07:09:44;18.80;;;9.93;;
16878;SDS011;8556;52.218;9.884;2022-11-20T07:12:11;18.27;;;11.37;;
16878;SDS011;8556;52.218;9.884;2022-11-20T07:14:39;16.97;;;9.63;;
16878;SDS011;8556;52.218;9.884;2022-11-20T07:17:06;18.67;;;10.13;;
16878;SDS011;8556;52.218;9.884;2022-11-20T07:19:33;18.50;;;10.60;;
16878;SDS011;8556;52.218;9.884;2022-11-20T07:21:59;21.60;;;11.90;;
16878;SDS011;8556;52.218;9.884;2022-11-20T07:24:26;20.73;;;11.47;;
16878;SDS011;8556;52.218;9.884;2022-11-20T07:26:53;17.77;;;10.90;;
16878;SDS011;8556;52.218;9.884;2022-11-20T07:29:20;19.13;;;11.40;;
16878;SDS011;8556;52.218;9.884;2022-11-20T07:31:48;18.77;;;10.20;;
16878;SDS011;8556;52.218;9.884;2022-11-20T07:34:15;17.60;;;10.20;;
16878;SDS011;8556;52.218;9.884;2022-11-20T07:36:41;18.00;;;10.17;;
16878;SDS011;8556;52.218;9.884;2022-11-20T07:39:08;18.70;;;10.50;;
16878;SDS011;8556;52.218;9.884;2022-11-20T07:41:35;18.80;;;10.20;;
16878;SDS011;8556;52.218;9.884;2022-11-20T07:44:02;18.43;;;10.07;;
16878;SDS011;8556;52.218;9.884;2022-11-20T07:46:29;18.97;;;9.90;;
16878;SDS011;8556;52.218;9.884;2022-11-20T07:48:57;17.27;;;9.73;;
16878;SDS011;8556;52.218;9.884;2022-11-20T07:51:23;17.43;;;10.13;;
16878;SDS011;8556;52.218;9.884;2022-11-20T07:53:50;18.40;;;10.03;;
16878;SDS011;8556;52.218;9.884;2022-11-20T07:56:17;17.10;;;9.77;;
16878;SDS011;8556;52.218;9.884;2022-11-20T07:58:44;18.70;;;9.83;;
16878;SDS011;8556;52.218;9.884;2022-11-20T08:01:11;19.30;;;9.40;;
16878;SDS011;8556;52.218;9.884;2022-11-20T08:03:38;18.20;;;9.23;;
16878;SDS011;8556;52.218;9.884;2022-11-20T08:06:06;17.97;;;9.93;;
16878;SDS011;8556;52.218;9.884;2022-11-20T08:08:37;17.20;;;10.20;;
16878;SDS011;8556;52.218;9.884;2022-11-20T08:11:04;18.33;;;10.33;;
16878;SDS011;8556;52.218;9.884;2022-11-20T08:13:48;19.03;;;11.30;;
16878;SDS011;8556;52.218;9.884;2022-11-20T08:16:33;22.93;;;11.77;;
16878;SDS011;8556;52.218;9.884;2022-11-20T08:18:59;18.83;;;11.30;;
16878;SDS011;8556;52.218;9.884;2022-11-20T08:21:27;17.97;;;10.40;;
16878;SDS011;8556;52.218;9.884;2022-11-20T08:23:56;19.63;;;11.37;;
16878;SDS011;8556;52.218;9.884;2022-11-20T08:26:23;17.33;;;10.33;;
16878;SDS011;8556;52.218;9.884;2022-11-20T08:28:52;19.03;;;10.43;;
16878;SDS011;8556;52.218;9.884;2022-11-20T08:31:20;17.23;;;9.27;;
16878;SDS011;8556;52.218;9.884;2022-11-20T08:33:47;20.47;;;11.97;;
16878;SDS011;8556;52.218;9.884;2022-11-20T08:36:14;18.03;;;11.33;;
16878;SDS011;8556;52.218;9.884;2022-11-20T08:38:42;17.77;;;9.10;;
16878;SDS011;8556;52.218;9.884;2022-11-20T08:41:12;19.40;;;10.23;;
16878;SDS011;8556;52.218;9.884;2022-11-20T08:43:52;19.37;;;10.33;;
16878;SDS011;8556;52.218;9.884;2022-11-20T08:46:21;17.27;;;9.20;;
16878;SDS011;8556;52.218;9.884;2022-11-20T08:48:49;19.13;;;9.30;;
16878;SDS011;8556;52.218;9.884;2022-11-20T08:51:16;18.23;;;9.70;;
16878;SDS011;8556;52.218;9.884;2022-11-20T08:53:45;17.20;;;10.00;;
16878;SDS011;8556;52.218;9.884;2022-11-20T08:56:13;19.57;;;11.00;;
16878;SDS011;8556;52.218;9.884;2022-11-20T08:58:40;21.23;;;10.73;;
16878;SDS011;8556;52.218;9.884;2022-11-20T09:01:07;17.30;;;10.40;;
16878;SDS011;8556;52.218;9.884;2022-11-20T09:03:34;18.50;;;11.33;;
16878;SDS011;8556;52.218;9.884;2022-11-20T09:06:03;20.13;;;10.57;;
16878;SDS011;8556;52.218;9.884;2022-11-20T09:08:31;17.97;;;9.07;;
16878;SDS011;8556;52.218;9.884;2022-11-20T09:11:00;19.57;;;9.90;;
16878;SDS011;8556;52.218;9.884;2022-11-20T09:13:29;20.97;;;11.27;;
16878;SDS011;8556;52.218;9.884;2022-11-20T09:15:57;18.67;;;11.10;;
16878;SDS011;8556;52.218;9.884;2022-11-20T09:18:25;19.73;;;11.00;;
16878;SDS011;8556;52.218;9.884;2022-11-20T09:20:55;19.03;;;9.67;;
16878;SDS011;8556;52.218;9.884;2022-11-20T09:23:23;17.13;;;9.73;;
16878;SDS011;8556;52.218;9.884;2022-11-20T09:25:50;18.40;;;9.87;;
16878;SDS011;8556;52.218;9.884;2022-11-20T09:28:18;15.63;;;8.03;;
16878;SDS011;8556;52.218;9.884;2022-11-20T09:30:45;15.90;;;7.73;;
16878;SDS011;8556;52.218;9.884;2022-11-20T09:33:12;16.27;;;8.13;;
16878;SDS011;8556;52.218;9.884;2022-11-20T09:35:39;16.80;;;8.10;;
16878;SDS011;8556;52.218;9.884;2022-11-20T09:38:06;20.10;;;10.00;;
16878;SDS011;8556;52.218;9.884;2022-11-20T09:40:34;17.43;;;9.07;;
16878;SDS011;8556;52.218;9.884;2022-11-20T09:43:02;17.60;;;9.50;;
16878;SDS011;8556;52.218;9.884;2022-11-20T09:45:46;18.80;;;10.50;;
16878;SDS011;8556;52.218;9.884;2022-11-20T09:48:25;17.33;;;10.70;;
16878;SDS011;8556;52.218;9.884;2022-11-20T09:51:04;20.47;;;10.57;;
16878;SDS011;8556;52.218;9.884;2022-11-20T09:53:41;19.93;;;10.17;;
16878;SDS011;8556;52.218;9.884;2022-11-20T09:56:19;18.60;;;9.57;;
16878;SDS011;8556;52.218;9.884;2022-11-20T09:58:47;17.70;;;8.90;;
16878;SDS011;8556;52.218;9.884;2022-11-20T10:01:18;18.80;;;11.10;;
16878;SDS011;8556;52.218;9.884;2022-11-20T10:03:50;19.33;;;9.37;;
16878;SDS011;8556;52.218;9.884;2022-11-20T10:06:21;19.97;;;10.93;;
16878;SDS011;8556;52.218;9.884;2022-11-20T10:08:55;18.50;;;10.57;;
16878;SDS011;8556;52.218;9.884;2022-11-20T10:11:33;18.80;;;11.17;;
16878;SDS011;8556;52.218;9.884;2022-11-20T10:14:14;21.53;;;10.73;;
16878;SDS011;8556;52.218;9.884;2022-11-20T10:16:53;18.20;;;9.50;;
16878;SDS011;8556;52.218;9.884;2022-11-20T10:22:17;22.30;;;11.10;;
16878;SDS011;8556;52.218;9.884;2022-11-20T10:24:54;22.20;;;10.67;;
16878;SDS011;8556;52.218;9.884;2022-11-20T10:30:30;21.60;;;10.67;;
16878;SDS011;8556;52.218;9.884;2022-11-20T10:33:05;20.93;;;10.30;;
16878;SDS011;8556;52.218;9.884;2022-11-20T10:35:40;19.57;;;10.40;;
16878;SDS011;8556;52.218;9.884;2022-11-20T10:38:11;20.80;;;10.30;;
16878;SDS011;8556;52.218;9.884;2022-11-20T10:40:43;18.73;;;9.37;;
16878;SDS011;8556;52.218;9.884;2022-11-20T10:43:12;21.03;;;10.13;;
16878;SDS011;8556;52.218;9.884;2022-11-20T10:45:44;20.67;;;10.40;;
16878;SDS011;8556;52.218;9.884;2022-11-20T10:48:19;23.20;;;11.43;;
16878;SDS011;8556;52.218;9.884;2022-11-20T10:50:54;21.10;;;10.30;;
16878;SDS011;8556;52.218;9.884;2022-11-20T10:53:39;20.03;;;10.40;;
16878;SDS011;8556;52.218;9.884;2022-11-20T10:56:15;20.83;;;10.13;;
16878;SDS011;8556;52.218;9.884;2022-11-20T10:58:49;22.33;;;11.03;;
16878;SDS011;8556;52.218;9.884;2022-11-20T11:01:27;19.50;;;10.03;;
16878;SDS011;8556;52.218;9.884;2022-11-20T11:03:55;23.27;;;11.67;;
16878;SDS011;8556;52.218;9.884;2022-11-20T11:06:25;24.37;;;12.33;;
16878;SDS011;8556;52.218;9.884;2022-11-20T11:09:01;21.83;;;12.10;;
16878;SDS011;8556;52.218;9.884;2022-11-20T11:11:35;21.27;;;11.70;;
16878;SDS011;8556;52.218;9.884;2022-11-20T11:14:04;20.23;;;10.73;;
16878;SDS011;8556;52.218;9.884;2022-11-20T11:16:32;20.97;;;11.53;;
16878;SDS011;8556;52.218;9.884;2022-11-20T11:19:07;21.50;;;10.37;;
16878;SDS011;8556;52.218;9.884;2022-11-20T11:21:39;19.27;;;10.40;;
16878;SDS011;8556;52.218;9.884;2022-11-20T11:24:15;20.07;;;10.77;;
16878;SDS011;8556;52.218;9.884;2022-11-20T11:26:51;21.17;;;11.70;;
16878;SDS011;8556;52.218;9.884;2022-11-20T11:29:21;22.90;;;10.43;;
16878;SDS011;8556;52.218;9.884;2022-11-20T11:31:48;20.90;;;10.53;;
16878;SDS011;8556;52.218;9.884;2022-11-20T11:34:17;22.10;;;11.97;;
16878;SDS011;8556;52.218;9.884;2022-11-20T11:36:49;20.87;;;12.20;;
16878;SDS011;8556;52.218;9.884;2022-11-20T11:39:20;19.27;;;9.87;;
16878;SDS011;8556;52.218;9.884;2022-11-20T11:41:47;19.47;;;9.77;;
16878;SDS011;8556;52.218;9.884;2022-11-20T11:44:17;20.37;;;10.37;;
16878;SDS011;8556;52.218;9.884;2022-11-20T11:47:03;19.63;;;10.17;;
16878;SDS011;8556;52.218;9.884;2022-11-20T11:49:32;20.67;;;10.80;;
16878;SDS011;8556;52.218;9.884;2022-11-20T11:52:01;21.50;;;10.60;;
16878;SDS011;8556;52.218;9.884;2022-11-20T11:54:34;19.63;;;11.70;;
16878;SDS011;8556;52.218;9.884;2022-11-20T11:57:05;18.10;;;10.23;;
16878;SDS011;8556;52.218;9.884;2022-11-20T11:59:43;19.73;;;11.33;;
16878;SDS011;8556;52.218;9.884;2022-11-20T12:02:24;20.13;;;10.63;;
16878;SDS011;8556;52.218;9.884;2022-11-20T12:04:59;21.13;;;10.80;;
16878;SDS011;8556;52.218;9.884;2022-11-20T12:07:36;19.60;;;10.20;;
16878;SDS011;8556;52.218;9.884;2022-11-20T12:10:13;23.13;;;11.37;;
16878;SDS011;8556;52.218;9.884;2022-11-20T12:12:44;20.07;;;10.70;;
16878;SDS011;8556;52.218;9.884;2022-11-20T12:15:16;20.13;;;10.50;;
16878;SDS011;8556;52.218;9.884;2022-11-20T12:17:54;19.97;;;9.93;;
16878;SDS011;8556;52.218;9.884;2022-11-20T12:20:24;19.40;;;10.30;;
16878;SDS011;8556;52.218;9.884;2022-11-20T12:22:54;19.90;;;10.50;;
16878;SDS011;8556;52.218;9.884;2022-11-20T12:25:27;22.53;;;10.63;;
16878;SDS011;8556;52.218;9.884;2022-11-20T12:28:02;20.60;;;10.73;;
16878;SDS011;8556;52.218;9.884;2022-11-20T12:30:47;23.33;;;11.10;;
16878;SDS011;8556;52.218;9.884;2022-11-20T12:33:25;20.87;;;10.77;;
16878;SDS011;8556;52.218;9.884;2022-11-20T12:36:16;21.07;;;11.53;;
16878;SDS011;8556;52.218;9.884;2022-11-20T12:39:05;21.40;;;11.20;;
16878;SDS011;8556;52.218;9.884;2022-11-20T12:41:46;21.60;;;11.70;;
16878;SDS011;8556;52.218;9.884;2022-11-20T12:47:41;20.77;;;11.13;;
16878;SDS011;8556;52.218;9.884;2022-11-20T12:50:21;22.53;;;11.33;;
16878;SDS011;8556;52.218;9.884;2022-11-20T12:52:59;21.27;;;10.40;;
16878;SDS011;8556;52.218;9.884;2022-11-20T12:55:32;24.43;;;11.43;;
16878;SDS011;8556;52.218;9.884;2022-11-20T12:58:10;24.37;;;11.80;;
16878;SDS011;8556;52.218;9.884;2022-11-20T13:00:47;22.03;;;11.37;;
16878;SDS011;8556;52.218;9.884;2022-11-20T13:03:29;22.03;;;11.23;;
16878;SDS011;8556;52.218;9.884;2022-11-20T13:06:12;19.63;;;10.83;;
16878;SDS011;8556;52.218;9.884;2022-11-20T13:08:43;20.27;;;10.13;;
16878;SDS011;8556;52.218;9.884;2022-11-20T13:11:17;19.30;;;9.47;;
16878;SDS011;8556;52.218;9.884;2022-11-20T13:16:41;18.40;;;9.83;;
16878;SDS011;8556;52.218;9.884;2022-11-20T13:19:16;22.17;;;10.10;;
16878;SDS011;8556;52.218;9.884;2022-11-20T13:21:45;18.23;;;10.63;;
16878;SDS011;8556;52.218;9.884;2022-11-20T13:24:23;21.73;;;10.43;;
16878;SDS011;8556;52.218;9.884;2022-11-20T13:27:02;21.43;;;10.97;;
16878;SDS011;8556;52.218;9.884;2022-11-20T13:29:31;20.77;;;10.90;;
16878;SDS011;8556;52.218;9.884;2022-11-20T13:32:03;20.37;;;10.60;;
16878;SDS011;8556;52.218;9.884;2022-11-20T13:34:32;20.90;;;10.73;;
16878;SDS011;8556;52.218;9.884;2022-11-20T13:37:00;19.07;;;10.20;;
16878;SDS011;8556;52.218;9.884;2022-11-20T13:39:30;18.37;;;9.97;;
16878;SDS011;8556;52.218;9.884;2022-11-20T13:41:58;18.73;;;9.67;;
16878;SDS011;8556;52.218;9.884;2022-11-20T13:44:30;20.63;;;10.13;;
16878;SDS011;8556;52.218;9.884;2022-11-20T13:47:02;19.13;;;10.10;;
16878;SDS011;8556;52.218;9.884;2022-11-20T13:49:31;18.63;;;9.93;;
16878;SDS011;8556;52.218;9.884;2022-11-20T13:52:05;19.27;;;10.27;;
16878;SDS011;8556;52.218;9.884;2022-11-20T13:54:54;18.37;;;8.93;;
16878;SDS011;8556;52.218;9.884;2022-11-20T13:57:42;20.83;;;10.93;;
16878;SDS011;8556;52.218;9.884;2022-11-20T14:00:23;16.73;;;9.30;;
16878;SDS011;8556;52.218;9.884;2022-11-20T14:02:57;20.10;;;10.30;;
16878;SDS011;8556;52.218;9.884;2022-11-20T14:05:34;22.30;;;12.33;;
16878;SDS011;8556;52.218;9.884;2022-11-20T14:08:05;18.90;;;10.10;;
16878;SDS011;8556;52.218;9.884;2022-11-20T14:10:40;18.30;;;9.57;;
16878;SDS011;8556;52.218;9.884;2022-11-20T14:13:10;20.03;;;9.67;;
16878;SDS011;8556;52.218;9.884;2022-11-20T14:15:41;20.27;;;9.93;;
16878;SDS011;8556;52.218;9.884;2022-11-20T14:18:12;16.30;;;9.07;;
16878;SDS011;8556;52.218;9.884;2022-11-20T14:20:40;19.40;;;9.93;;
16878;SDS011;8556;52.218;9.884;2022-11-20T14:23:09;17.53;;;9.17;;
16878;SDS011;8556;52.218;9.884;2022-11-20T14:25:36;19.03;;;9.77;;
16878;SDS011;8556;52.218;9.884;2022-11-20T14:28:11;19.10;;;10.63;;
16878;SDS011;8556;52.218;9.884;2022-11-20T14:30:47;16.90;;;9.57;;
16878;SDS011;8556;52.218;9.884;2022-11-20T14:33:15;17.80;;;9.67;;
16878;SDS011;8556;52.218;9.884;2022-11-20T14:35:45;17.97;;;9.63;;
16878;SDS011;8556;52.218;9.884;2022-11-20T14:38:14;18.60;;;9.50;;
16878;SDS011;8556;52.218;9.884;2022-11-20T14:40:44;21.67;;;11.70;;
16878;SDS011;8556;52.218;9.884;2022-11-20T14:43:20;23.03;;;11.90;;
16878;SDS011;8556;52.218;9.884;2022-11-20T14:45:52;16.77;;;9.83;;
16878;SDS011;8556;52.218;9.884;2022-11-20T14:48:25;17.93;;;10.00;;
16878;SDS011;8556;52.218;9.884;2022-11-20T14:50:56;19.10;;;9.57;;
16878;SDS011;8556;52.218;9.884;2022-11-20T14:53:23;18.20;;;9.77;;
16878;SDS011;8556;52.218;9.884;2022-11-20T14:55:54;18.40;;;9.83;;
16878;SDS011;8556;52.218;9.884;2022-11-20T14:58:25;18.93;;;9.57;;
16878;SDS011;8556;52.218;9.884;2022-11-20T15:00:54;20.07;;;10.03;;
16878;SDS011;8556;52.218;9.884;2022-11-20T15:03:21;18.97;;;9.43;;